Impacts TAF Board
For situational awareness. Not to be used for flight planning purposes.
IDs:

KMCB - McComb/Lewis Fld, MS, US

Issued at 2008 UTC 30 Jun 2022
Updated at 2242 UTC 30 Jun 2022
Potential Impact None Slight Moderate High
Time2225Z 30/23Z 01/00Z 01/01Z 01/02Z 01/03Z 01/04Z 01/05Z 01/06Z 01/07Z 01/08Z 01/09Z 01/10Z 01/11Z>>
Type OBS PRVL PRVL PRVL PRVL PRVL PRVL PRVL PRVL PRVL PRVL PRVL PRVL PRVL
VIS 10 >6 >6 >6 >6 >6 >6 >6 >6 >6 >6 >6 >6 >6
CIG 90 60 60 60 60 110 110 110 110 110 110 25 25 25
Cover OVC BKN BKN BKN BKN BKN BKN BKN BKN BKN BKN BKN BKN BKN
FltCat VFR VFR VFR VFR VFR VFR VFR VFR VFR VFR VFR MVFR MVFR MVFR
WX -RA VCTS VCTS VCTS VCTS -- -- -- -- -- -- -- -- --
WDir VRB 160 160 160 160 VRB VRB VRB VRB VRB VRB VRB VRB VRB
WSpd 0 6 6 6 6 3 3 3 3 3 3 0 0 0
WGst -- -- -- -- -- -- -- -- -- -- -- -- -- --
WSHgt -- -- -- -- -- -- -- -- -- -- -- -- -- --
WSDir -- -- -- -- -- -- -- -- -- -- -- -- -- --
WSSpd -- -- -- -- -- -- -- -- -- -- -- -- -- --
Raw TAF
KMCB 302008Z 3020/0118 16006KT P6SM VCTS SCT030CB BKN060
  TEMPO 3020/3023 VRB10KT 2SM TSRA BKN025CB
  FM010300 VRB03KT P6SM SCT020 BKN110
  FM010900 00000KT P6SM SCT008 BKN025
  FM011400 VRB04KT P6SM SCT025 BKN250


Raw METAR
KMCB 302225Z AUTO 00000KT 10SM -RA BKN090 OVC110 23/22 A3008 RMK AO2 LTG DSNT N P0005 T02330222
KMCB 302210Z AUTO 15003KT 3SM VCTS RA BR OVC100 23/22 A3008 RMK AO2 LTG DSNT ALQDS P0004 T02330222
KMCB 302153Z AUTO 16004KT 4SM RA BR OVC100 23/22 A3008 RMK AO2 LTG DSNT S AND NW TSE14 SLP180 P0018 T02330217
KMCB 302137Z AUTO 00000KT 4SM VCTS -RA BR FEW075 BKN095 OVC110 23/22 A3009 RMK AO2 LTG DSNT W-NE TSE14 P0016 T02330222
KMCB 302124Z AUTO 00000KT 3SM RA BR FEW040 BKN075 OVC110 23/22 A3009 RMK AO2 LTG DSNT NE AND NW TSE14 P0014 T02330217
KMCB 302114Z AUTO 19007KT 2SM VCTS RA BR FEW007 BKN043 OVC085 23/22 A3008 RMK AO2 LTG DSNT NE AND SW AND NW TSE14 P0012 T02330217
KMCB 302053Z AUTO 15012KT 1 1/2SM +TSRA BR FEW009 BKN048 OVC095 23/22 A3008 RMK AO2 LTG DSNT ALQDS TSB12 SLP180 P0020 60034 T02330222 55002
KMCB 302039Z AUTO 12010KT 2 1/2SM +TSRA BR FEW009 BKN055 OVC110 23/22 A3007 RMK AO2 LTG DSNT ALQDS TSB12 P0010 T02330217
KMCB 302018Z AUTO 16011KT 6SM -TSRA BR FEW060 BKN090 OVC110 24/22 A3006 RMK AO2 LTG DSNT ALQDS TSB12 PRESRR P0005 T02440222
KMCB 302006Z AUTO 17009KT 3SM VCTS RA BR FEW048 BKN090 OVC110 24/22 A3002 RMK AO2 LTG DSNT ALQDS P0003 T02440222
KMCB 301959Z AUTO 14007KT 3SM RA BR FEW043 BKN065 OVC110 24/22 A3002 RMK AO2 LTG DSNT ALQDS PRESFR P0001 T02440222
KMCB 301953Z AUTO 16007KT 1 1/4SM +RA BR SCT041 BKN050 OVC095 24/22 A3005 RMK AO2 LTG DSNT ALQDS RAB23 SLP169 P0014 T02390222
KMCB 301945Z AUTO 15012KT 1 3/4SM +RA FEW036 BKN049 OVC090 24/22 A3005 RMK AO2 LTG DSNT NE AND S AND NW RAB23 P0008 T02440217

METAR Board
Radar Display
Forecast Discussion
For situational awareness. Not to be used for flight planning purposes.